Terminal Aerodrome Forecast
Issued by NWS Charleston, WV

Current Version | Previous Version | Graphics & Text | Print | Product List | Glossary On
Versions: 1 2 3 4 5 6 7 8 9 10 11 12 13 14 15 16 17 18 19 20 21 22 23 24 25
000
FTUS41 KRLX 160858 AAA
TAFCRW
TAF AMD
KCRW 160858Z 1609/1706 00000KT 1/2SM FG VV001
     FM161300 00000KT 3SM BR BKN002
     FM161400 VRB03KT P6SM FEW040=

USA.gov is the U.S. government's official web portal to all federal, state and local government web resources and services.